Naylor, Georgia
Current Conditions -  °F | °C
As of 2:15 PM on Sunday 23 Nov 2014 (Local Time) from KVAD Reporting Station
Overcast Overcast  
Wind Chill: 72°   Ceiling: 700
Heat Index: 72°   Visibility: 10mi
Dew Point: 70°   Wind: 10mph
Humidity: 94%   Direction: 190°S
Pressure: 29.8"   Gusts: NA
Location:  30.91°N, 83.08°W
Report Text: KVAD 231915Z AUTO 19009KT 10SM OVC007 22/21 A2980 RMK AO2
Loading
Personal Weather Stations






























Interactive Weather Map New forecast layout! Learn more

10-Day Weather Forecast

Advertisements
Track Severe Weather on mobile